Time;durP1;ratioP1;P1;durP2;ratioP2;P2;SDS_P1;SDS_P2;PMS_P1;PMS_P2;Temp;Humidity;BMP_temperature;BMP_pressure;BME280_temperature;BME280_humidity;BME280_pressure;Samples;Min_cycle;Max_cycle;Signal;HPM_P1;HPM_P2
2023/05/03 00:00:30;;;;;;;;;;;;;;;-144.99;85.38;52423.63;5028363;28;19926;-71
2023/05/03 00:02:57;;;;;;;;;;;;;;;-144.99;85.20;52370.63;4679164;28;9999940;-71
2023/05/03 00:05:23;;;;;;;;;;;;;;;-144.99;85.27;52378.78;5027873;28;19939;-72
2023/05/03 00:07:49;;;;;;;;;;;;;;;-144.99;85.21;52348.22;5030475;28;19933;-71
2023/05/03 00:10:16;;;;;;;;;;;;;;;-144.99;85.33;52366.56;5042751;28;19929;-72
2023/05/03 00:12:44;;;;;;;;;;;;;;;-144.99;85.27;52391.03;5030667;28;19961;-71
2023/05/03 00:15:12;;;;;;;;;;;;;;;-144.99;85.22;52376.75;5030387;28;19932;-72
2023/05/03 00:17:38;;;;;;;;;;;;;;;-144.99;85.52;52391.03;5030534;28;19933;-72
2023/05/03 00:20:06;;;;;;;;;;;;;;;-144.99;85.61;52395.09;5031763;28;19925;-71
2023/05/03 00:22:33;;;;;;;;;;;;;;;-144.99;85.78;52331.91;5028588;28;19925;-71
2023/05/03 00:25:00;;;;;;;;;;;;;;;-144.99;86.05;52384.91;5031256;28;20400;-71
2023/05/03 00:27:26;;;;;;;;;;;;;;;-144.99;86.31;52386.94;5031290;28;19955;-70
2023/05/03 00:29:53;;;;;;;;;;;;;;;-144.99;86.41;52411.41;5031914;28;19925;-70
2023/05/03 00:32:21;;;;;;;;;;;;;;;-144.99;86.74;52386.94;5033878;28;19929;-69
2023/05/03 00:34:47;;;;;;;;;;;;;;;-144.99;86.59;52370.63;5025170;28;19929;-70
2023/05/03 00:37:14;;;;;;;;;;;;;;;-144.99;87.23;52362.50;5036083;28;20019;-70
2023/05/03 00:39:40;;;;;;;;;;;;;;;-144.99;86.99;52350.25;5035715;28;19939;-71
2023/05/03 00:42:07;;;;;;;;;;;;;;;-144.99;87.22;52382.88;5034433;28;19980;-71
2023/05/03 00:44:33;;;;;;;;;;;;;;;-144.99;87.44;52362.50;5033969;28;19979;-70
2023/05/03 00:47:00;;;;;;;;;;;;;;;-144.99;87.82;52342.09;5034444;28;20401;-71
2023/05/03 00:49:28;;;;;;;;;;;;;;;-144.99;87.78;52395.09;5034698;28;19983;-67
2023/05/03 00:51:55;;;;;;;;;;;;;;;-144.99;88.21;52378.78;5034035;28;20392;-70
2023/05/03 00:54:21;;;;;;;;;;;;;;;-144.99;88.71;52380.84;5031723;28;19925;-68
2023/05/03 00:56:48;;;;;;;;;;;;;;;-144.99;88.78;52374.72;5033017;28;20372;-69
2023/05/03 00:59:14;;;;;;;;;;;;;;;-144.99;88.69;52388.97;5033680;28;19972;-70
2023/05/03 01:01:41;;;;;;;;;;;;;;;-144.99;88.99;52374.72;5031277;28;19991;-70
2023/05/03 01:04:07;;;;;;;;;;;;;;;-144.99;89.14;52403.25;5048534;22;19929;-75
2023/05/03 01:06:40;;;;;;;;;;;;;;;-144.99;89.30;52417.53;5035367;28;19924;-74
2023/05/03 01:09:11;;;;;;;;;;;;;;;-144.99;89.51;52374.72;5049817;28;19929;-72
2023/05/03 01:11:42;;;;;;;;;;;;;;;-144.99;89.88;52386.94;5038445;28;20160;-73
2023/05/03 01:14:12;;;;;;;;;;;;;;;-144.99;90.29;52376.75;5048062;28;19937;-70
2023/05/03 01:16:40;;;;;;;;;;;;;;;-144.99;90.30;52362.50;5047467;28;20378;-73
2023/05/03 01:19:20;;;;;;;;;;;;;;;-144.99;89.99;52382.88;5048041;28;20208;-73
2023/05/03 01:21:56;;;;;;;;;;;;;;;-144.99;90.01;52358.41;5049588;28;19953;-72
2023/05/03 01:24:24;;;;;;;;;;;;;;;-144.99;89.78;52407.31;5038532;28;20009;-72
2023/05/03 01:26:52;;;;;;;;;;;;;;;-144.99;89.86;52362.50;5042402;28;19932;-73
2023/05/03 01:29:19;;;;;;;;;;;;;;;-144.99;90.05;52362.50;5042719;28;19971;-74
2023/05/03 01:31:49;;;;;;;;;;;;;;;-144.99;90.14;52391.03;5047813;28;19929;-74
2023/05/03 01:34:19;;;;;;;;;;;;;;;-144.99;90.59;52378.78;5041387;28;19925;-74
2023/05/03 01:36:46;;;;;;;;;;;;;;;-144.99;90.63;52358.41;5047075;28;20373;-74
2023/05/03 01:39:16;;;;;;;;;;;;;;;-144.99;90.89;52405.28;5045055;28;20023;-74
2023/05/03 01:41:43;;;;;;;;;;;;;;;-144.99;90.30;52342.09;5044413;28;19987;-75
2023/05/03 01:44:11;;;;;;;;;;;;;;;-144.99;90.04;52342.09;5044411;28;20346;-75
2023/05/03 01:46:42;;;;;;;;;;;;;;;-144.99;90.26;52382.88;5042380;28;19979;-74
2023/05/03 01:49:08;;;;;;;;;;;;;;;-144.99;90.45;52382.88;5050671;28;19925;-74
2023/05/03 01:51:35;;;;;;;;;;;;;;;-144.99;90.68;52378.78;5045127;28;19964;-75
2023/05/03 01:54:01;;;;;;;;;;;;;;;-144.99;90.81;52425.66;5045002;28;19968;-74
2023/05/03 01:56:28;;;;;;;;;;;;;;;-144.99;90.88;52388.97;5049124;28;19968;-74
2023/05/03 01:58:54;;;;;;;;;;;;;;;-144.99;91.03;52374.72;5045684;28;19925;-74
2023/05/03 02:01:22;;;;;;;;;;;;;;;-144.99;91.23;52395.09;5046935;28;19933;-73
2023/05/03 02:03:49;;;;;;;;;;;;;;;-144.99;91.08;52391.03;5039613;28;20191;-74
2023/05/03 02:06:15;;;;;;;;;;;;;;;-144.99;91.00;52423.63;5050193;28;20078;-72
2023/05/03 02:08:42;;;;;;;;;;;;;;;-144.99;91.27;52415.47;5036433;28;19929;-74
2023/05/03 02:11:08;;;;;;;;;;;;;;;-144.99;91.13;52374.72;5046780;28;19929;-74
2023/05/03 02:13:36;;;;;;;;;;;;;;;-144.99;91.13;52374.72;5045640;28;20155;-75
2023/05/03 02:16:03;;;;;;;;;;;;;;;-144.99;91.59;52395.09;5049397;28;19978;-68
2023/05/03 02:18:31;;;;;;;;;;;;;;;-144.99;91.39;52439.94;5039294;28;19994;-68
2023/05/03 02:20:57;;;;;;;;;;;;;;;-144.99;91.51;52397.13;5047653;28;20246;-68
2023/05/03 02:23:24;;;;;;;;;;;;;;;-144.99;91.25;52391.03;5047407;28;19929;-68
2023/05/03 02:25:50;;;;;;;;;;;;;;;-144.99;91.52;52382.88;5042471;28;19960;-66
2023/05/03 02:28:17;;;;;;;;;;;;;;;-144.99;91.27;52352.28;5047720;28;19929;-73
2023/05/03 02:30:43;;;;;;;;;;;;;;;-144.99;91.00;52354.34;5039814;28;20355;-74
2023/05/03 02:33:10;;;;;;;;;;;;;;;-144.99;91.27;52362.50;5045644;28;19999;-74
2023/05/03 02:35:38;;;;;;;;;;;;;;;-144.99;91.07;52366.56;5040345;28;20347;-73
2023/05/03 02:38:04;;;;;;;;;;;;;;;-144.99;91.18;52350.25;5049197;28;19944;-73
2023/05/03 02:40:31;;;;;;;;;;;;;;;-144.99;91.13;52382.88;5048435;28;20398;-72
2023/05/03 02:42:57;;;;;;;;;;;;;;;-144.99;91.13;52378.78;5045197;28;20435;-72
2023/05/03 02:45:24;;;;;;;;;;;;;;;-144.99;91.04;52378.78;5047943;28;20365;-71
2023/05/03 02:47:51;;;;;;;;;;;;;;;-144.99;91.25;52370.63;5045050;28;20187;-69
2023/05/03 02:50:17;;;;;;;;;;;;;;;-144.99;91.11;52370.63;5048832;28;20053;-69
2023/05/03 02:52:45;;;;;;;;;;;;;;;-144.99;91.30;52378.78;5041412;28;19940;-74
2023/05/03 02:55:12;;;;;;;;;;;;;;;-144.99;91.37;52342.09;5040367;28;20464;-74
2023/05/03 02:57:39;;;;;;;;;;;;;;;-144.99;90.62;52346.19;5048420;28;19979;-73
2023/05/03 03:00:06;;;;;;;;;;;;;;;-144.99;90.76;52354.34;5042991;28;19968;-73
2023/05/03 03:02:33;;;;;;;;;;;;;;;-144.99;91.26;52368.59;5043485;28;20016;-72
2023/05/03 03:04:59;;;;;;;;;;;;;;;-144.99;91.44;52350.25;5041769;28;19925;-72
2023/05/03 03:07:26;;;;;;;;;;;;;;;-144.99;91.53;52370.63;5039280;28;19978;-72
2023/05/03 03:09:54;;;;;;;;;;;;;;;-144.99;92.15;52350.25;5039341;28;20502;-71
2023/05/03 03:12:20;;;;;;;;;;;;;;;-144.99;92.27;52386.94;5040096;28;19941;-72
2023/05/03 03:14:47;;;;;;;;;;;;;;;-144.99;92.47;52366.56;5038990;28;19924;-70
2023/05/03 03:17:13;;;;;;;;;;;;;;;-144.99;92.84;52352.28;5045956;28;19925;-70
2023/05/03 03:19:40;;;;;;;;;;;;;;;-144.99;93.10;52370.63;5047685;28;20392;-71
2023/05/03 03:22:07;;;;;;;;;;;;;;;-144.99;93.59;52350.25;5044007;28;19987;-72
2023/05/03 03:24:33;;;;;;;;;;;;;;;-144.99;93.54;52382.88;5040535;28;20093;-71
2023/05/03 03:27:01;;;;;;;;;;;;;;;-144.99;93.75;52399.19;5044941;28;19968;-71
2023/05/03 03:29:29;;;;;;;;;;;;;;;-144.99;93.40;52399.19;5047019;28;20336;-72
2023/05/03 03:31:56;;;;;;;;;;;;;;;-144.99;93.78;52382.88;5037564;28;20038;-71
2023/05/03 03:34:23;;;;;;;;;;;;;;;-144.99;93.80;52370.63;5040921;28;20411;-72
2023/05/03 03:36:49;;;;;;;;;;;;;;;-144.99;93.87;52391.03;5040162;28;19986;-71
2023/05/03 03:39:16;;;;;;;;;;;;;;;-144.99;93.82;52378.78;5048563;28;20235;-71
2023/05/03 03:41:42;;;;;;;;;;;;;;;-144.99;93.89;52362.50;5044616;28;20512;-69
2023/05/03 03:44:12;;;;;;;;;;;;;;;-144.99;93.87;52358.41;5039366;28;20447;-68
2023/05/03 03:46:39;;;;;;;;;;;;;;;-144.99;93.36;52358.41;5037940;28;19929;-68
2023/05/03 03:49:06;;;;;;;;;;;;;;;-144.99;93.87;52354.34;5043003;28;19932;-67
2023/05/03 03:51:33;;;;;;;;;;;;;;;-144.99;94.48;52362.50;5032824;28;19979;-71
2023/05/03 03:54:00;;;;;;;;;;;;;;;-144.99;94.64;52295.22;5039475;28;19933;-69
2023/05/03 03:56:26;;;;;;;;;;;;;;;-144.99;94.35;52374.72;5045114;28;19959;-70
2023/05/03 03:58:53;;;;;;;;;;;;;;;-144.99;94.36;52378.78;5040494;28;19990;-70
2023/05/03 04:01:20;;;;;;;;;;;;;;;-144.99;94.47;52382.88;5037554;28;19925;-71
2023/05/03 04:03:47;;;;;;;;;;;;;;;-144.99;94.43;52395.09;5037873;28;20069;-71
2023/05/03 04:06:14;;;;;;;;;;;;;;;-144.99;94.67;52378.78;5038538;28;19932;-70
2023/05/03 04:08:40;;;;;;;;;;;;;;;-144.99;94.64;52329.88;5038140;28;19937;-71
2023/05/03 04:11:09;;;;;;;;;;;;;;;-144.99;94.52;52366.56;5040754;28;20108;-70
2023/05/03 04:13:36;;;;;;;;;;;;;;;-144.99;94.66;52362.50;5042773;28;19986;-70
2023/05/03 04:16:03;;;;;;;;;;;;;;;-144.99;94.65;52342.09;5047099;28;20023;-69
2023/05/03 04:18:30;;;;;;;;;;;;;;;-144.99;94.60;52378.78;5042566;28;19971;-71
2023/05/03 04:20:57;;;;;;;;;;;;;;;-144.99;93.00;52382.88;5040521;28;19968;-73
2023/05/03 04:23:24;;;;;;;;;;;;;;;-144.99;92.56;52391.03;5037418;28;19960;-68
2023/05/03 04:25:50;;;;;;;;;;;;;;;-144.99;93.99;52372.69;5038173;28;19987;-75
2023/05/03 04:28:18;;;;;;;;;;;;;;;-144.99;94.65;52358.41;5033480;28;19933;-73
2023/05/03 04:30:45;;;;;;;;;;;;;;;-144.99;95.01;52370.63;5047049;28;19929;-71
2023/05/03 04:33:12;;;;;;;;;;;;;;;-144.99;94.93;52382.88;5045112;28;19925;-70
2023/05/03 04:35:40;;;;;;;;;;;;;;;-144.99;94.87;52374.72;5041848;28;19929;-69
2023/05/03 04:38:07;;;;;;;;;;;;;;;-144.99;94.99;52336.00;5028967;28;19936;-70
2023/05/03 04:40:34;;;;;;;;;;;;;;;-144.99;94.95;52362.50;5037438;28;19960;-71
2023/05/03 04:43:00;;;;;;;;;;;;;;;-144.99;95.23;52374.72;5042649;28;19925;-71
2023/05/03 04:45:27;;;;;;;;;;;;;;;-144.99;95.31;52354.34;5047185;28;20421;-71
2023/05/03 04:47:54;;;;;;;;;;;;;;;-144.99;95.02;52333.94;5035822;28;20444;-71
2023/05/03 04:50:20;;;;;;;;;;;;;;;-144.99;95.06;52342.09;5039753;28;19929;-71
2023/05/03 04:52:48;;;;;;;;;;;;;;;-144.99;95.02;52362.50;5040082;28;19939;-70
2023/05/03 04:55:15;;;;;;;;;;;;;;;-144.99;95.18;52382.88;5034891;28;19929;-70
2023/05/03 04:57:42;;;;;;;;;;;;;;;-144.99;94.94;52350.25;5038010;28;19948;-70
2023/05/03 05:00:11;;;;;;;;;;;;;;;-144.99;94.95;52309.50;5042772;28;19939;-64
2023/05/03 05:02:38;;;;;;;;;;;;;;;-144.99;95.08;52333.94;5042883;28;20027;-73
2023/05/03 05:05:05;;;;;;;;;;;;;;;-144.99;95.20;52340.06;5046456;28;19990;-70
2023/05/03 05:07:31;;;;;;;;;;;;;;;-144.99;95.31;52317.66;5038113;28;19928;-71
2023/05/03 05:09:59;;;;;;;;;;;;;;;-144.99;95.40;52346.19;5044735;28;19932;-71
2023/05/03 05:12:26;;;;;;;;;;;;;;;-144.99;95.54;52354.34;5039527;28;20437;-67
2023/05/03 05:14:53;;;;;;;;;;;;;;;-144.99;95.41;52325.81;5038114;28;19986;-68
2023/05/03 05:17:20;;;;;;;;;;;;;;;-144.99;95.27;52338.03;5040117;28;19960;-68
2023/05/03 05:19:46;;;;;;;;;;;;;;;-144.99;95.13;52338.03;5045068;28;19935;-68
2023/05/03 05:22:13;;;;;;;;;;;;;;;-144.99;95.17;52325.81;5042899;28;19944;-68
2023/05/03 05:24:40;;;;;;;;;;;;;;;-144.99;95.37;52317.66;5042508;28;19937;-69
2023/05/03 05:27:08;;;;;;;;;;;;;;;-144.99;95.20;52297.25;5048471;28;20356;-69
2023/05/03 05:29:34;;;;;;;;;;;;;;;-144.99;95.09;52329.88;5041257;28;20024;-69
2023/05/03 05:32:02;;;;;;;;;;;;;;;-144.99;95.01;52354.34;5045710;28;20432;-68
2023/05/03 05:34:29;;;;;;;;;;;;;;;-144.99;94.71;52346.19;5049803;28;19952;-67
2023/05/03 05:36:56;;;;;;;;;;;;;;;-144.99;94.59;52360.44;5049372;28;19929;-67
2023/05/03 05:39:23;;;;;;;;;;;;;;;-144.99;94.15;52329.88;5045562;28;19925;-67
2023/05/03 05:41:49;;;;;;;;;;;;;;;-144.99;93.90;52285.03;5042431;28;19963;-67
2023/05/03 05:44:17;;;;;;;;;;;;;;;-144.99;93.69;52378.78;5035587;28;19968;-68
2023/05/03 05:46:43;;;;;;;;;;;;;;;-144.99;93.38;52309.50;5049332;28;20002;-68
2023/05/03 05:49:10;;;;;;;;;;;;;;;-144.99;93.13;52329.88;5043392;28;19925;-68
2023/05/03 05:51:37;;;;;;;;;;;;;;;-144.99;92.86;52329.88;5049378;28;20338;-68
2023/05/03 05:54:03;;;;;;;;;;;;;;;-144.99;92.03;52311.53;5045443;28;19933;-68
2023/05/03 05:56:30;;;;;;;;;;;;;;;-144.99;91.76;52293.19;5049818;28;20451;-67
2023/05/03 05:58:56;;;;;;;;;;;;;;;-144.99;91.26;52305.41;5045206;28;19937;-68
2023/05/03 06:01:25;;;;;;;;;;;;;;;-144.99;89.98;52305.41;5039726;28;19963;-67
2023/05/03 06:03:52;;;;;;;;;;;;;;;-144.99;89.83;52329.88;5040920;28;19933;-67
2023/05/03 06:06:18;;;;;;;;;;;;;;;-144.99;88.45;52317.66;5043438;28;19924;-68
2023/05/03 06:08:48;;;;;;;;;;;;;;;-144.99;87.82;52323.75;5040653;28;19925;-67
2023/05/03 06:11:15;;;;;;;;;;;;;;;-144.99;86.83;52297.25;5035373;28;19968;-68
2023/05/03 06:13:42;;;;;;;;;;;;;;;-144.99;85.93;52325.81;5041375;28;19933;-68
2023/05/03 06:16:09;;;;;;;;;;;;;;;-144.99;85.16;52305.41;5043482;28;20317;-68
2023/05/03 06:18:37;;;;;;;;;;;;;;;-144.99;84.41;52303.38;5047207;28;19974;-68
2023/05/03 06:21:04;;;;;;;;;;;;;;;-144.99;83.75;52293.19;5048549;28;20007;-68
2023/05/03 06:23:32;;;;;;;;;;;;;;;-144.99;83.32;52291.16;5048446;28;19928;-68
2023/05/03 06:25:58;;;;;;;;;;;;;;;-144.99;83.08;52280.97;5042862;28;20366;-68
2023/05/03 06:28:25;;;;;;;;;;;;;;;-144.99;83.06;52303.38;5035475;28;19925;-68
2023/05/03 06:30:51;;;;;;;;;;;;;;;-144.99;83.06;52305.41;5048807;28;19990;-68
2023/05/03 06:33:18;;;;;;;;;;;;;;;-144.99;82.84;52323.75;5047113;28;19952;-68
2023/05/03 06:35:47;;;;;;;;;;;;;;;-144.99;82.43;52268.72;5038419;28;20456;-68
2023/05/03 06:38:13;;;;;;;;;;;;;;;-144.99;80.57;52276.88;5046616;28;19932;-68
2023/05/03 06:40:41;;;;;;;;;;;;;;;-144.99;79.58;52321.72;5039540;28;19939;-68
2023/05/03 06:43:07;;;;;;;;;;;;;;;-144.99;79.37;52309.50;5044706;28;20027;-68
2023/05/03 06:45:34;;;;;;;;;;;;;;;-144.99;78.64;52268.72;5049075;28;20171;-69
2023/05/03 06:48:00;;;;;;;;;;;;;;;-144.99;78.28;52276.88;5038979;28;19972;-69
2023/05/03 06:50:27;;;;;;;;;;;;;;;-144.99;77.52;52301.34;5046641;28;20378;-68
2023/05/03 06:52:55;;;;;;;;;;;;;;;-144.99;77.40;52295.22;5047975;28;19986;-68
2023/05/03 06:55:21;;;;;;;;;;;;;;;-144.99;76.71;52303.38;5042075;28;19928;-68
2023/05/03 06:57:51;;;;;;;;;;;;;;;-144.99;75.75;52256.50;5046978;28;19976;-69
2023/05/03 07:00:18;;;;;;;;;;;;;;;-144.99;74.50;52280.97;5041913;28;19998;-69
2023/05/03 07:02:45;;;;;;;;;;;;;;;-144.99;73.84;52272.81;5052509;28;20231;-69
2023/05/03 07:05:11;;;;;;;;;;;;;;;-144.99;73.60;52301.34;5050113;28;20258;-69
2023/05/03 07:07:38;;;;;;;;;;;;;;;-144.99;73.22;52272.81;5049138;28;19936;-69
2023/05/03 07:10:07;;;;;;;;;;;;;;;-144.99;72.56;52262.63;5047082;28;19933;-69
2023/05/03 07:12:33;;;;;;;;;;;;;;;-144.99;72.42;52289.13;5045458;28;20275;-68
2023/05/03 07:15:00;;;;;;;;;;;;;;;-144.99;71.90;52317.66;5043828;28;19987;-68
2023/05/03 07:17:26;;;;;;;;;;;;;;;-144.99;71.38;52285.03;5043657;28;19952;-68
2023/05/03 07:19:53;;;;;;;;;;;;;;;-144.99;71.53;52280.97;5045007;28;20382;-69
2023/05/03 07:22:23;;;;;;;;;;;;;;;-144.99;71.42;52260.56;5046735;28;19925;-68
2023/05/03 07:24:50;;;;;;;;;;;;;;;-144.99;71.09;52289.13;5040992;28;19928;-68
2023/05/03 07:27:18;;;;;;;;;;;;;;;-144.99;70.75;52291.16;5036432;28;19998;-68
2023/05/03 07:29:44;;;;;;;;;;;;;;;-144.99;70.75;52260.56;5041289;28;19978;-67
2023/05/03 07:32:11;;;;;;;;;;;;;;;-144.99;70.87;52289.13;5045394;28;19933;-67
2023/05/03 07:34:37;;;;;;;;;;;;;;;-144.99;70.85;52309.50;5044980;28;20002;-69
2023/05/03 07:37:04;;;;;;;;;;;;;;;-144.99;71.20;52321.72;5045979;28;20087;-68
2023/05/03 07:39:31;;;;;;;;;;;;;;;-144.99;70.96;52311.53;5040169;28;20440;-69
2023/05/03 07:41:57;;;;;;;;;;;;;;;-144.99;71.05;52325.81;5043960;28;20066;-69
2023/05/03 07:44:25;;;;;;;;;;;;;;;-144.99;70.89;52297.25;5043121;28;20177;-69
2023/05/03 07:46:52;;;;;;;;;;;;;;;-144.99;70.83;52305.41;5055293;28;19956;-69
2023/05/03 07:49:18;;;;;;;;;;;;;;;-144.99;70.84;52270.78;5050833;28;19925;-69
2023/05/03 07:51:45;;;;;;;;;;;;;;;-144.99;70.57;52305.41;5047161;28;20408;-69
2023/05/03 07:54:11;;;;;;;;;;;;;;;-144.99;70.55;52295.22;5045726;28;20463;-69
2023/05/03 07:56:38;;;;;;;;;;;;;;;-144.99;69.94;52252.44;5040229;28;20035;-69
2023/05/03 07:59:04;;;;;;;;;;;;;;;-144.99;69.27;52289.13;5043620;28;20063;-69
2023/05/03 08:01:32;;;;;;;;;;;;;;;-144.99;69.16;52313.56;5049654;28;20432;-69
2023/05/03 08:03:59;;;;;;;;;;;;;;;-144.99;69.22;52327.84;5052312;28;20412;-70
2023/05/03 08:06:28;;;;;;;;;;;;;;;-144.99;68.88;52317.66;5054880;28;20027;-69
2023/05/03 08:08:54;;;;;;;;;;;;;;;-144.99;69.20;52283.00;5051031;28;20238;-70
2023/05/03 08:11:21;;;;;;;;;;;;;;;-144.99;69.18;52268.72;5057652;28;19925;-69
2023/05/03 08:13:47;;;;;;;;;;;;;;;-144.99;69.48;52307.47;5049401;28;19929;-70
2023/05/03 08:16:15;;;;;;;;;;;;;;;-144.99;69.30;52260.56;5059425;28;19978;-69
2023/05/03 08:18:43;;;;;;;;;;;;;;;-144.99;69.23;52280.97;5056811;28;19967;-69
2023/05/03 08:21:11;;;;;;;;;;;;;;;-144.99;68.61;52236.13;5053918;28;19928;-69
2023/05/03 08:23:37;;;;;;;;;;;;;;;-144.99;68.70;52246.31;5057314;28;19929;-69
2023/05/03 08:26:04;;;;;;;;;;;;;;;-144.99;68.05;52234.09;5056082;28;19979;-69
2023/05/03 08:28:31;;;;;;;;;;;;;;;-144.99;67.30;52252.44;5049746;28;19925;-70
2023/05/03 08:30:57;;;;;;;;;;;;;;;-144.99;67.22;52244.28;5047422;28;19968;-70
2023/05/03 08:33:24;;;;;;;;;;;;;;;-144.99;67.01;52223.88;5051612;28;19967;-69
2023/05/03 08:35:52;;;;;;;;;;;;;;;-144.99;66.97;52256.50;5049553;28;19929;-69
2023/05/03 08:38:18;;;;;;;;;;;;;;;-144.99;66.59;52260.56;5035833;28;20401;-68
2023/05/03 08:40:48;;;;;;;;;;;;;;;-144.99;66.72;52260.56;5036955;28;19975;-69
2023/05/03 08:43:15;;;;;;;;;;;;;;;-144.99;66.89;52260.56;5044883;28;19925;-70
2023/05/03 08:45:41;;;;;;;;;;;;;;;-144.99;66.82;52215.75;5041813;28;19933;-68
2023/05/03 08:48:08;;;;;;;;;;;;;;;-144.99;66.73;52280.97;5041185;28;20032;-69
2023/05/03 08:50:40;;;;;;;;;;;;;;;-144.99;66.57;52280.97;5043217;28;19933;-69
2023/05/03 08:53:09;;;;;;;;;;;;;;;-144.99;66.75;52244.28;5043507;28;20019;-70
2023/05/03 08:55:35;;;;;;;;;;;;;;;-144.99;67.13;52260.56;5041583;28;19968;-69
2023/05/03 08:58:03;;;;;;;;;;;;;;;-144.99;66.81;52211.66;5042925;28;19968;-70
2023/05/03 09:00:30;;;;;;;;;;;;;;;-144.99;67.02;52244.28;5049221;28;19925;-69
2023/05/03 09:02:56;;;;;;;;;;;;;;;-144.99;66.95;52325.81;5048023;28;19929;-69
2023/05/03 09:05:32;;;;;;;;;;;;;;;-144.99;67.25;52268.72;5051395;28;19959;-69
2023/05/03 09:08:03;;;;;;;;;;;;;;;-144.99;67.44;52280.97;5051345;28;19925;-69
2023/05/03 09:10:31;;;;;;;;;;;;;;;-144.99;67.52;52227.97;5049024;28;20175;-69
2023/05/03 09:12:59;;;;;;;;;;;;;;;-144.99;67.76;52268.72;5042004;28;19960;-69
2023/05/03 09:15:28;;;;;;;;;;;;;;;-144.99;67.14;52215.75;5055101;28;19940;-69
2023/05/03 09:18:11;;;;;;;;;;;;;;;-144.99;66.13;52211.66;5060573;28;19932;-69
2023/05/03 09:20:39;;;;;;;;;;;;;;;-144.99;66.28;52183.13;5047695;28;19933;-69
2023/05/03 09:23:06;;;;;;;;;;;;;;;-144.99;65.64;52215.75;5045317;28;20771;-69
2023/05/03 09:25:44;;;;;;;;;;;;;;;-144.99;64.50;52236.13;5049043;28;20455;-70
2023/05/03 09:28:11;;;;;;;;;;;;;;;-144.99;64.60;52195.34;5049747;28;20527;-69
2023/05/03 09:30:37;;;;;;;;;;;;;;;-144.99;64.30;52158.66;5047995;28;19936;-70
2023/05/03 09:33:04;;;;;;;;;;;;;;;-144.99;64.48;52191.28;5051262;28;20282;-71
2023/05/03 09:35:32;;;;;;;;;;;;;;;-144.99;63.17;52232.03;5044419;28;19932;-70
2023/05/03 09:37:58;;;;;;;;;;;;;;;-144.99;63.20;52207.59;5048440;28;20061;-70
2023/05/03 09:40:25;;;;;;;;;;;;;;;-144.99;63.21;52232.03;5044904;28;19935;-70
2023/05/03 09:43:10;;;;;;;;;;;;;;;-144.99;63.90;52203.50;5046571;28;19925;-70
2023/05/03 09:45:37;;;;;;;;;;;;;;;-144.99;63.74;52232.03;5040558;28;19955;-70
2023/05/03 09:48:04;;;;;;;;;;;;;;;-144.99;64.10;52211.66;5050520;28;19925;-70
2023/05/03 09:50:35;;;;;;;;;;;;;;;-144.99;64.60;52219.81;5047630;28;19924;-69
2023/05/03 09:53:03;;;;;;;;;;;;;;;-144.99;64.51;52236.13;5041718;28;20345;-69
2023/05/03 09:55:31;;;;;;;;;;;;;;;-144.99;64.26;52213.69;5042291;28;19947;-70
2023/05/03 09:57:59;;;;;;;;;;;;;;;-144.99;64.20;52254.47;5050081;28;19937;-69
2023/05/03 10:00:28;;;;;;;;;;;;;;;-144.99;64.28;52227.97;5063338;28;19947;-70
2023/05/03 10:02:58;;;;;;;;;;;;;;;-144.99;64.54;52232.03;5051177;28;19925;-70
2023/05/03 10:05:26;;;;;;;;;;;;;;;-144.99;64.60;52219.81;5050122;28;20250;-70
2023/05/03 10:07:55;;;;;;;;;;;;;;;-144.99;64.45;52260.56;5048281;28;20282;-70
2023/05/03 10:10:22;;;;;;;;;;;;;;;-144.99;64.58;52254.47;5045139;28;20400;-70
2023/05/03 10:12:52;;;;;;;;;;;;;;;-144.99;64.52;52252.44;4344110;28;10000807;-70
2023/05/03 10:15:22;;;;;;;;;;;;;;;-144.99;64.57;52219.81;5042685;28;19968;-70
2023/05/03 10:17:53;;;;;;;;;;;;;;;-144.99;64.76;52232.03;5031672;28;19925;-70
2023/05/03 10:20:25;;;;;;;;;;;;;;;-144.99;64.11;52262.63;5046113;28;19935;-70
2023/05/03 10:23:07;;;;;;;;;;;;;;;-144.99;64.10;52232.03;5042903;28;20333;-70
2023/05/03 10:25:34;;;;;;;;;;;;;;;-144.99;63.85;52166.81;5037346;28;19956;-69
2023/05/03 10:28:02;;;;;;;;;;;;;;;-144.99;63.33;52187.19;5043432;28;19941;-70
2023/05/03 10:30:30;;;;;;;;;;;;;;;-144.99;62.76;52105.69;5037210;28;20459;-70
2023/05/03 10:32:58;;;;;;;;;;;;;;;-144.99;61.38;52130.13;5040914;28;20003;-71
2023/05/03 10:35:28;;;;;;;;;;;;;;;-144.99;61.06;52117.91;5046146;28;19987;-71
2023/05/03 10:37:56;;;;;;;;;;;;;;;-144.99;60.75;52126.06;5045646;28;19965;-71
2023/05/03 10:40:23;;;;;;;;;;;;;;;-144.99;60.78;52164.78;5039579;28;20465;-71
2023/05/03 10:42:55;;;;;;;;;;;;;;;-144.99;61.04;52156.63;4692079;28;9999656;-71
2023/05/03 10:45:23;;;;;;;;;;;;;;;-144.99;60.88;52179.06;5047833;28;19964;-71
2023/05/03 10:48:19;;;;;;;;;;;;;;;-144.99;60.77;52187.19;5034624;28;19968;-71
2023/05/03 10:50:46;;;;;;;;;;;;;;;-144.99;60.32;52166.81;5041009;28;19929;-71
2023/05/03 10:53:34;;;;;;;;;;;;;;;-144.99;60.70;52191.28;5044239;28;19925;-71
2023/05/03 10:56:02;;;;;;;;;;;;;;;-144.99;60.85;52203.50;5036966;28;19968;-70
2023/05/03 10:58:29;;;;;;;;;;;;;;;-144.99;60.69;52213.69;5042201;28;19986;-70
2023/05/03 11:00:55;;;;;;;;;;;;;;;-144.99;60.89;52138.28;5044931;28;20334;-70
2023/05/03 11:03:30;;;;;;;;;;;;;;;-144.99;60.42;52121.97;5049333;28;19925;-70
2023/05/03 11:05:58;;;;;;;;;;;;;;;-144.99;60.02;52195.34;5049353;28;20357;-70
2023/05/03 11:08:25;;;;;;;;;;;;;;;-144.99;60.68;52199.44;5046934;28;19936;-70
2023/05/03 11:10:57;;;;;;;;;;;;;;;-144.99;60.83;52187.19;5041573;28;20302;-70
2023/05/03 11:13:23;;;;;;;;;;;;;;;-144.99;61.05;52195.34;5043681;28;19925;-71
2023/05/03 11:15:50;;;;;;;;;;;;;;;-144.99;62.06;52215.75;5045840;28;19929;-70
2023/05/03 11:18:16;;;;;;;;;;;;;;;-144.99;62.48;52211.66;5039147;28;19924;-70
2023/05/03 11:20:44;;;;;;;;;;;;;;;-144.99;63.20;52219.81;5046099;28;19933;-70
2023/05/03 11:23:11;;;;;;;;;;;;;;;-144.99;63.28;52130.13;5046290;28;19987;-71
2023/05/03 11:25:38;;;;;;;;;;;;;;;-144.99;62.97;52160.72;5043888;28;20396;-70
2023/05/03 11:28:05;;;;;;;;;;;;;;;-144.99;62.53;52223.88;5050722;28;20366;-70
2023/05/03 11:30:33;;;;;;;;;;;;;;;-144.99;62.16;52164.78;5048998;28;20388;-70
2023/05/03 11:33:00;;;;;;;;;;;;;;;-144.99;61.36;52179.06;5039142;28;19925;-70
2023/05/03 11:35:28;;;;;;;;;;;;;;;-144.99;60.64;52075.09;5040250;28;20032;-70
2023/05/03 11:37:56;;;;;;;;;;;;;;;-144.99;60.36;52183.13;5043519;28;20382;-70
2023/05/03 11:40:23;;;;;;;;;;;;;;;-144.99;60.96;52170.91;5045304;28;19964;-70
2023/05/03 11:42:57;;;;;;;;;;;;;;;-144.99;61.41;52174.97;5045756;28;20073;-70
2023/05/03 11:45:24;;;;;;;;;;;;;;;-144.99;61.82;52203.50;5047808;28;19928;-70
2023/05/03 11:47:51;;;;;;;;;;;;;;;-144.99;62.47;52199.44;5034960;28;19991;-69
2023/05/03 11:50:18;;;;;;;;;;;;;;;-144.99;63.55;52268.72;5037171;28;20347;-71
2023/05/03 11:52:45;;;;;;;;;;;;;;;-144.99;63.24;52166.81;5043580;28;20116;-71
2023/05/03 11:55:15;;;;;;;;;;;;;;;-144.99;62.91;52211.66;5043095;28;19936;-71
2023/05/03 11:57:42;;;;;;;;;;;;;;;-144.99;62.91;52183.13;5047498;28;19971;-71
2023/05/03 12:00:16;;;;;;;;;;;;;;;-144.99;62.83;52130.13;5042999;28;20029;-71
2023/05/03 12:02:42;;;;;;;;;;;;;;;-144.99;62.42;52069.00;5047266;28;19929;-71
2023/05/03 12:05:09;;;;;;;;;;;;;;;-144.99;61.50;52056.78;5042270;28;19953;-71
2023/05/03 12:07:36;;;;;;;;;;;;;;;-144.99;60.19;52052.69;5046368;28;19929;-71
2023/05/03 12:10:14;;;;;;;;;;;;;;;-144.99;59.32;52044.53;5039557;28;20386;-71
2023/05/03 12:12:41;;;;;;;;;;;;;;;-144.99;58.88;52113.84;5046171;28;19968;-71
2023/05/03 12:15:08;;;;;;;;;;;;;;;-144.99;58.65;52134.22;5044428;28;19924;-72
2023/05/03 12:17:36;;;;;;;;;;;;;;;-144.99;58.86;52162.75;5039922;28;20008;-72
2023/05/03 12:20:19;;;;;;;;;;;;;;;-144.99;58.97;52166.81;5047065;28;20301;-73
2023/05/03 12:22:48;;;;;;;;;;;;;;;-144.99;58.72;52174.97;5037654;28;19925;-72
2023/05/03 12:25:16;;;;;;;;;;;;;;;-144.99;59.98;52146.44;5047157;28;19990;-72
2023/05/03 12:27:42;;;;;;;;;;;;;;;-144.99;59.24;52056.78;5038487;28;19968;-71